Slater, Wyoming
Current Conditions -  °F | °C
As of 7:35 AM on Sunday 23 Nov 2014 (Local Time) from KGUR Reporting Station
Clear Clear  
Wind Chill: 30°   Ceiling: Unl
Heat Index: 30°   Visibility: 10mi
Dew Point: 27°   Wind: 3mph
Humidity: 88%   Direction: 280°W
Pressure: 29.8"   Gusts: NA
Location:  42.0178°N, 105.098°W
Report Text: KGUR 231435Z AUTO 28003KT 10SM CLR M01/M03 A2980 RMK AO2 T10121030 PWINO
Loading
Personal Weather Stations






























Interactive Weather Map New forecast layout! Learn more

10-Day Weather Forecast

Advertisements
Track Severe Weather on mobile